sensor_id;sensor_type;location;lat;lon;timestamp;temperature;humidity
18998;DHT22;9632;51.018;4.284;2023-02-28T00:00:17;3.60;99.90
18998;DHT22;9632;51.018;4.284;2023-02-28T00:02:43;3.70;99.90
18998;DHT22;9632;51.018;4.284;2023-02-28T00:05:11;3.70;99.90
18998;DHT22;9632;51.018;4.284;2023-02-28T00:07:37;3.60;99.90
18998;DHT22;9632;51.018;4.284;2023-02-28T00:10:04;3.60;99.90
18998;DHT22;9632;51.018;4.284;2023-02-28T00:12:31;3.60;99.90
18998;DHT22;9632;51.018;4.284;2023-02-28T00:14:57;3.60;99.90
18998;DHT22;9632;51.018;4.284;2023-02-28T00:17:23;3.50;99.90
18998;DHT22;9632;51.018;4.284;2023-02-28T00:19:49;3.60;99.90
18998;DHT22;9632;51.018;4.284;2023-02-28T00:22:20;3.50;99.90
18998;DHT22;9632;51.018;4.284;2023-02-28T00:24:46;3.50;99.90
18998;DHT22;9632;51.018;4.284;2023-02-28T00:27:12;3.50;99.90
18998;DHT22;9632;51.018;4.284;2023-02-28T00:29:38;3.50;99.90
18998;DHT22;9632;51.018;4.284;2023-02-28T00:32:05;3.50;99.90
18998;DHT22;9632;51.018;4.284;2023-02-28T00:34:31;3.50;99.90
18998;DHT22;9632;51.018;4.284;2023-02-28T00:36:57;3.50;99.90
18998;DHT22;9632;51.018;4.284;2023-02-28T00:39:23;3.50;99.90
18998;DHT22;9632;51.018;4.284;2023-02-28T00:41:49;3.50;99.90
18998;DHT22;9632;51.018;4.284;2023-02-28T00:44:14;3.50;99.90
18998;DHT22;9632;51.018;4.284;2023-02-28T00:46:40;3.50;99.90
18998;DHT22;9632;51.018;4.284;2023-02-28T00:49:06;3.50;99.90
18998;DHT22;9632;51.018;4.284;2023-02-28T00:51:31;3.40;99.90
18998;DHT22;9632;51.018;4.284;2023-02-28T00:53:57;3.40;99.90
18998;DHT22;9632;51.018;4.284;2023-02-28T00:56:22;3.40;99.90
18998;DHT22;9632;51.018;4.284;2023-02-28T00:58:48;3.40;99.90
18998;DHT22;9632;51.018;4.284;2023-02-28T01:01:14;3.40;99.90
18998;DHT22;9632;51.018;4.284;2023-02-28T01:03:39;3.40;99.90
18998;DHT22;9632;51.018;4.284;2023-02-28T01:06:05;3.40;99.90
18998;DHT22;9632;51.018;4.284;2023-02-28T01:08:31;3.50;99.90
18998;DHT22;9632;51.018;4.284;2023-02-28T01:10:57;3.40;99.90
18998;DHT22;9632;51.018;4.284;2023-02-28T01:13:23;3.30;99.90
18998;DHT22;9632;51.018;4.284;2023-02-28T01:15:55;3.30;99.90
18998;DHT22;9632;51.018;4.284;2023-02-28T01:18:22;3.20;99.90
18998;DHT22;9632;51.018;4.284;2023-02-28T01:20:48;3.20;99.90
18998;DHT22;9632;51.018;4.284;2023-02-28T01:23:14;3.20;99.90
18998;DHT22;9632;51.018;4.284;2023-02-28T01:25:40;3.30;99.90
18998;DHT22;9632;51.018;4.284;2023-02-28T01:28:06;3.30;99.90
18998;DHT22;9632;51.018;4.284;2023-02-28T01:30:32;3.30;99.90
18998;DHT22;9632;51.018;4.284;2023-02-28T01:32:58;3.40;99.90
18998;DHT22;9632;51.018;4.284;2023-02-28T01:35:24;3.40;99.90
18998;DHT22;9632;51.018;4.284;2023-02-28T01:37:50;3.40;99.90
18998;DHT22;9632;51.018;4.284;2023-02-28T01:40:16;3.40;99.90
18998;DHT22;9632;51.018;4.284;2023-02-28T01:42:41;3.40;99.90
18998;DHT22;9632;51.018;4.284;2023-02-28T01:45:29;3.40;99.90
18998;DHT22;9632;51.018;4.284;2023-02-28T01:48:04;3.40;99.90
18998;DHT22;9632;51.018;4.284;2023-02-28T01:50:36;3.30;99.90
18998;DHT22;9632;51.018;4.284;2023-02-28T01:53:07;3.30;99.90
18998;DHT22;9632;51.018;4.284;2023-02-28T01:55:34;3.30;99.90
18998;DHT22;9632;51.018;4.284;2023-02-28T01:58:02;3.30;99.90
18998;DHT22;9632;51.018;4.284;2023-02-28T02:00:30;3.30;99.90
18998;DHT22;9632;51.018;4.284;2023-02-28T02:02:59;3.30;99.90
18998;DHT22;9632;51.018;4.284;2023-02-28T02:05:29;3.20;99.90
18998;DHT22;9632;51.018;4.284;2023-02-28T02:08:00;3.20;99.90
18998;DHT22;9632;51.018;4.284;2023-02-28T02:10:44;3.20;99.90
18998;DHT22;9632;51.018;4.284;2023-02-28T02:22:16;3.10;99.90
18998;DHT22;9632;51.018;4.284;2023-02-28T02:36:09;3.00;99.90
18998;DHT22;9632;51.018;4.284;2023-02-28T02:38:49;2.90;99.90
18998;DHT22;9632;51.018;4.284;2023-02-28T02:41:18;2.90;99.90
18998;DHT22;9632;51.018;4.284;2023-02-28T02:44:02;2.80;99.90
18998;DHT22;9632;51.018;4.284;2023-02-28T02:46:33;2.90;99.90
18998;DHT22;9632;51.018;4.284;2023-02-28T02:49:02;2.90;99.90
18998;DHT22;9632;51.018;4.284;2023-02-28T02:51:31;2.90;99.90
18998;DHT22;9632;51.018;4.284;2023-02-28T02:54:19;2.90;99.90
18998;DHT22;9632;51.018;4.284;2023-02-28T02:56:47;2.80;99.90
18998;DHT22;9632;51.018;4.284;2023-02-28T02:59:16;2.80;99.90
18998;DHT22;9632;51.018;4.284;2023-02-28T03:01:50;2.80;99.90
18998;DHT22;9632;51.018;4.284;2023-02-28T03:04:19;2.80;99.90
18998;DHT22;9632;51.018;4.284;2023-02-28T03:06:46;2.80;99.90
18998;DHT22;9632;51.018;4.284;2023-02-28T03:09:12;2.80;99.90
18998;DHT22;9632;51.018;4.284;2023-02-28T03:11:38;2.80;99.90
18998;DHT22;9632;51.018;4.284;2023-02-28T03:27:28;2.70;99.90
18998;DHT22;9632;51.018;4.284;2023-02-28T03:30:02;2.70;99.90
18998;DHT22;9632;51.018;4.284;2023-02-28T03:32:42;2.60;99.90
18998;DHT22;9632;51.018;4.284;2023-02-28T03:35:26;2.60;99.90
18998;DHT22;9632;51.018;4.284;2023-02-28T03:38:22;2.70;99.90
18998;DHT22;9632;51.018;4.284;2023-02-28T03:41:06;2.60;99.90
18998;DHT22;9632;51.018;4.284;2023-02-28T03:43:36;2.60;99.90
18998;DHT22;9632;51.018;4.284;2023-02-28T03:46:08;2.60;99.90
18998;DHT22;9632;51.018;4.284;2023-02-28T03:48:40;2.50;99.90
18998;DHT22;9632;51.018;4.284;2023-02-28T03:51:09;2.50;99.90
18998;DHT22;9632;51.018;4.284;2023-02-28T03:53:39;2.50;99.90
18998;DHT22;9632;51.018;4.284;2023-02-28T03:56:31;2.50;99.90
18998;DHT22;9632;51.018;4.284;2023-02-28T04:01:32;2.50;99.90
18998;DHT22;9632;51.018;4.284;2023-02-28T04:03:58;2.50;99.90
18998;DHT22;9632;51.018;4.284;2023-02-28T04:06:24;2.40;99.90
18998;DHT22;9632;51.018;4.284;2023-02-28T04:08:50;2.40;99.90
18998;DHT22;9632;51.018;4.284;2023-02-28T04:11:35;2.40;99.90
18998;DHT22;9632;51.018;4.284;2023-02-28T04:14:02;2.50;99.90
18998;DHT22;9632;51.018;4.284;2023-02-28T04:16:29;2.40;99.90
18998;DHT22;9632;51.018;4.284;2023-02-28T04:18:55;2.40;99.90
18998;DHT22;9632;51.018;4.284;2023-02-28T04:21:28;2.40;99.90
18998;DHT22;9632;51.018;4.284;2023-02-28T04:23:54;2.40;99.90
18998;DHT22;9632;51.018;4.284;2023-02-28T04:26:20;2.40;99.90
18998;DHT22;9632;51.018;4.284;2023-02-28T04:28:46;2.40;99.90
18998;DHT22;9632;51.018;4.284;2023-02-28T04:31:11;2.40;99.90
18998;DHT22;9632;51.018;4.284;2023-02-28T04:33:37;2.40;99.90
18998;DHT22;9632;51.018;4.284;2023-02-28T04:36:05;2.40;99.90
18998;DHT22;9632;51.018;4.284;2023-02-28T04:38:36;2.40;99.90
18998;DHT22;9632;51.018;4.284;2023-02-28T04:41:03;2.40;99.90
18998;DHT22;9632;51.018;4.284;2023-02-28T04:43:30;2.50;99.90
18998;DHT22;9632;51.018;4.284;2023-02-28T04:45:57;2.40;99.90
18998;DHT22;9632;51.018;4.284;2023-02-28T04:48:23;2.40;99.90
18998;DHT22;9632;51.018;4.284;2023-02-28T04:50:50;2.40;99.90
18998;DHT22;9632;51.018;4.284;2023-02-28T04:53:16;2.40;99.90
18998;DHT22;9632;51.018;4.284;2023-02-28T04:55:41;2.50;99.90
18998;DHT22;9632;51.018;4.284;2023-02-28T04:58:07;2.50;99.90
18998;DHT22;9632;51.018;4.284;2023-02-28T05:00:32;2.60;99.90
18998;DHT22;9632;51.018;4.284;2023-02-28T05:02:58;2.60;99.90
18998;DHT22;9632;51.018;4.284;2023-02-28T05:05:24;2.60;99.90
18998;DHT22;9632;51.018;4.284;2023-02-28T05:07:49;2.60;99.90
18998;DHT22;9632;51.018;4.284;2023-02-28T05:10:15;2.60;99.90
18998;DHT22;9632;51.018;4.284;2023-02-28T05:12:41;2.70;99.90
18998;DHT22;9632;51.018;4.284;2023-02-28T05:15:07;2.70;99.90
18998;DHT22;9632;51.018;4.284;2023-02-28T05:17:34;2.70;99.90
18998;DHT22;9632;51.018;4.284;2023-02-28T05:19:59;2.80;99.90
18998;DHT22;9632;51.018;4.284;2023-02-28T05:22:25;2.80;99.90
18998;DHT22;9632;51.018;4.284;2023-02-28T05:24:50;2.80;99.90
18998;DHT22;9632;51.018;4.284;2023-02-28T05:27:16;2.80;99.90
18998;DHT22;9632;51.018;4.284;2023-02-28T05:29:41;2.90;99.90
18998;DHT22;9632;51.018;4.284;2023-02-28T05:32:11;2.90;99.90
18998;DHT22;9632;51.018;4.284;2023-02-28T05:34:38;3.00;99.90
18998;DHT22;9632;51.018;4.284;2023-02-28T05:37:05;3.00;99.90
18998;DHT22;9632;51.018;4.284;2023-02-28T05:39:30;3.00;99.90
18998;DHT22;9632;51.018;4.284;2023-02-28T05:41:56;3.00;99.90
18998;DHT22;9632;51.018;4.284;2023-02-28T05:44:22;3.10;99.90
18998;DHT22;9632;51.018;4.284;2023-02-28T05:46:47;3.10;99.90
18998;DHT22;9632;51.018;4.284;2023-02-28T05:49:13;3.10;99.90
18998;DHT22;9632;51.018;4.284;2023-02-28T05:51:39;3.20;99.90
18998;DHT22;9632;51.018;4.284;2023-02-28T05:54:05;3.10;99.90
18998;DHT22;9632;51.018;4.284;2023-02-28T05:56:31;3.20;99.90
18998;DHT22;9632;51.018;4.284;2023-02-28T05:59:00;3.20;99.90
18998;DHT22;9632;51.018;4.284;2023-02-28T06:01:39;3.20;99.90
18998;DHT22;9632;51.018;4.284;2023-02-28T06:04:08;3.20;99.90
18998;DHT22;9632;51.018;4.284;2023-02-28T06:06:34;3.20;99.90
18998;DHT22;9632;51.018;4.284;2023-02-28T06:09:01;3.30;99.90
18998;DHT22;9632;51.018;4.284;2023-02-28T06:11:27;3.30;99.90
18998;DHT22;9632;51.018;4.284;2023-02-28T06:14:00;3.30;99.90
18998;DHT22;9632;51.018;4.284;2023-02-28T06:16:30;3.20;99.90
18998;DHT22;9632;51.018;4.284;2023-02-28T06:19:01;3.20;99.90
18998;DHT22;9632;51.018;4.284;2023-02-28T06:21:28;3.20;99.90
18998;DHT22;9632;51.018;4.284;2023-02-28T06:23:53;3.20;99.90
18998;DHT22;9632;51.018;4.284;2023-02-28T06:26:19;3.30;99.90
18998;DHT22;9632;51.018;4.284;2023-02-28T06:28:45;3.30;99.90
18998;DHT22;9632;51.018;4.284;2023-02-28T06:31:14;3.30;99.90
18998;DHT22;9632;51.018;4.284;2023-02-28T06:33:41;3.30;99.90
18998;DHT22;9632;51.018;4.284;2023-02-28T06:36:09;3.30;99.90
18998;DHT22;9632;51.018;4.284;2023-02-28T06:38:35;3.30;99.90
18998;DHT22;9632;51.018;4.284;2023-02-28T06:41:01;3.30;99.90
18998;DHT22;9632;51.018;4.284;2023-02-28T06:43:33;3.30;99.90
18998;DHT22;9632;51.018;4.284;2023-02-28T06:46:00;3.30;99.90
18998;DHT22;9632;51.018;4.284;2023-02-28T06:48:27;3.40;99.90
18998;DHT22;9632;51.018;4.284;2023-02-28T06:51:02;3.40;99.90
18998;DHT22;9632;51.018;4.284;2023-02-28T06:53:28;3.50;99.90
18998;DHT22;9632;51.018;4.284;2023-02-28T06:55:53;3.30;99.90
18998;DHT22;9632;51.018;4.284;2023-02-28T06:58:19;3.40;99.90
18998;DHT22;9632;51.018;4.284;2023-02-28T07:00:45;3.40;99.90
18998;DHT22;9632;51.018;4.284;2023-02-28T07:03:12;3.40;99.90
18998;DHT22;9632;51.018;4.284;2023-02-28T07:07:58;3.40;99.90
18998;DHT22;9632;51.018;4.284;2023-02-28T07:10:24;3.40;99.90
18998;DHT22;9632;51.018;4.284;2023-02-28T07:12:49;3.50;99.90
18998;DHT22;9632;51.018;4.284;2023-02-28T07:15:16;3.50;99.90
18998;DHT22;9632;51.018;4.284;2023-02-28T07:17:42;3.50;99.90
18998;DHT22;9632;51.018;4.284;2023-02-28T07:20:08;3.50;99.90
18998;DHT22;9632;51.018;4.284;2023-02-28T07:22:34;3.50;99.90
18998;DHT22;9632;51.018;4.284;2023-02-28T07:24:59;3.60;99.90
18998;DHT22;9632;51.018;4.284;2023-02-28T07:27:25;3.70;99.90
18998;DHT22;9632;51.018;4.284;2023-02-28T07:29:52;3.80;99.90
18998;DHT22;9632;51.018;4.284;2023-02-28T07:32:18;3.90;99.90
18998;DHT22;9632;51.018;4.284;2023-02-28T07:34:44;3.90;99.90
18998;DHT22;9632;51.018;4.284;2023-02-28T07:37:10;4.00;99.90
18998;DHT22;9632;51.018;4.284;2023-02-28T07:39:36;4.00;99.90
18998;DHT22;9632;51.018;4.284;2023-02-28T07:42:05;4.00;99.90
18998;DHT22;9632;51.018;4.284;2023-02-28T07:44:32;4.00;99.90
18998;DHT22;9632;51.018;4.284;2023-02-28T07:46:58;4.10;99.90
18998;DHT22;9632;51.018;4.284;2023-02-28T07:49:23;4.10;99.90
18998;DHT22;9632;51.018;4.284;2023-02-28T07:51:49;4.20;99.90
18998;DHT22;9632;51.018;4.284;2023-02-28T07:54:14;4.20;99.90
18998;DHT22;9632;51.018;4.284;2023-02-28T07:56:40;4.30;99.90
18998;DHT22;9632;51.018;4.284;2023-02-28T07:59:06;4.40;99.90
18998;DHT22;9632;51.018;4.284;2023-02-28T08:01:31;4.50;99.90
18998;DHT22;9632;51.018;4.284;2023-02-28T08:03:57;4.50;99.90
18998;DHT22;9632;51.018;4.284;2023-02-28T08:06:24;4.40;99.90
18998;DHT22;9632;51.018;4.284;2023-02-28T08:08:50;4.50;99.90
18998;DHT22;9632;51.018;4.284;2023-02-28T08:11:17;4.50;99.90
18998;DHT22;9632;51.018;4.284;2023-02-28T08:13:43;4.60;99.90
18998;DHT22;9632;51.018;4.284;2023-02-28T08:16:10;4.50;99.90
18998;DHT22;9632;51.018;4.284;2023-02-28T08:18:36;4.60;99.90
18998;DHT22;9632;51.018;4.284;2023-02-28T08:21:09;4.70;99.90
18998;DHT22;9632;51.018;4.284;2023-02-28T08:23:35;4.70;99.90
18998;DHT22;9632;51.018;4.284;2023-02-28T08:26:01;4.70;99.90
18998;DHT22;9632;51.018;4.284;2023-02-28T08:28:27;4.80;99.90
18998;DHT22;9632;51.018;4.284;2023-02-28T08:30:53;4.80;99.90
18998;DHT22;9632;51.018;4.284;2023-02-28T08:33:19;4.80;99.90
18998;DHT22;9632;51.018;4.284;2023-02-28T08:35:45;4.80;99.90
18998;DHT22;9632;51.018;4.284;2023-02-28T08:38:10;4.80;99.90
18998;DHT22;9632;51.018;4.284;2023-02-28T08:40:36;4.70;99.90
18998;DHT22;9632;51.018;4.284;2023-02-28T08:43:02;4.60;99.90
18998;DHT22;9632;51.018;4.284;2023-02-28T08:45:27;4.60;99.90
18998;DHT22;9632;51.018;4.284;2023-02-28T08:47:54;4.60;99.90
18998;DHT22;9632;51.018;4.284;2023-02-28T08:50:21;4.60;99.90
18998;DHT22;9632;51.018;4.284;2023-02-28T08:52:47;4.60;99.90
18998;DHT22;9632;51.018;4.284;2023-02-28T08:55:13;4.60;99.90
18998;DHT22;9632;51.018;4.284;2023-02-28T08:57:38;4.60;99.90
18998;DHT22;9632;51.018;4.284;2023-02-28T09:00:05;4.60;99.90
18998;DHT22;9632;51.018;4.284;2023-02-28T09:02:31;4.60;99.90
18998;DHT22;9632;51.018;4.284;2023-02-28T09:04:57;4.60;99.90
18998;DHT22;9632;51.018;4.284;2023-02-28T09:07:24;4.60;99.90
18998;DHT22;9632;51.018;4.284;2023-02-28T09:09:49;4.50;99.90
18998;DHT22;9632;51.018;4.284;2023-02-28T09:12:25;4.50;99.90
18998;DHT22;9632;51.018;4.284;2023-02-28T09:14:52;4.50;99.90
18998;DHT22;9632;51.018;4.284;2023-02-28T09:17:18;4.40;99.90
18998;DHT22;9632;51.018;4.284;2023-02-28T09:19:44;4.50;99.90
18998;DHT22;9632;51.018;4.284;2023-02-28T09:22:10;4.60;99.90
18998;DHT22;9632;51.018;4.284;2023-02-28T09:24:37;4.70;99.90
18998;DHT22;9632;51.018;4.284;2023-02-28T09:27:03;4.70;99.90
18998;DHT22;9632;51.018;4.284;2023-02-28T09:29:29;4.80;99.90
18998;DHT22;9632;51.018;4.284;2023-02-28T09:31:55;5.00;99.90
18998;DHT22;9632;51.018;4.284;2023-02-28T09:34:24;5.10;99.90
18998;DHT22;9632;51.018;4.284;2023-02-28T09:36:50;5.20;99.90
18998;DHT22;9632;51.018;4.284;2023-02-28T09:39:21;5.30;99.90
18998;DHT22;9632;51.018;4.284;2023-02-28T09:41:50;5.40;99.90
18998;DHT22;9632;51.018;4.284;2023-02-28T09:44:37;5.50;99.90
18998;DHT22;9632;51.018;4.284;2023-02-28T09:49:46;5.60;99.90
18998;DHT22;9632;51.018;4.284;2023-02-28T09:52:22;5.60;99.90
18998;DHT22;9632;51.018;4.284;2023-02-28T09:54:51;5.70;99.90
18998;DHT22;9632;51.018;4.284;2023-02-28T09:57:19;5.70;99.90
18998;DHT22;9632;51.018;4.284;2023-02-28T10:03:06;5.60;99.90
18998;DHT22;9632;51.018;4.284;2023-02-28T10:05:49;5.70;99.90
18998;DHT22;9632;51.018;4.284;2023-02-28T10:11:01;5.60;99.90
18998;DHT22;9632;51.018;4.284;2023-02-28T10:16:43;5.60;99.90
18998;DHT22;9632;51.018;4.284;2023-02-28T10:22:27;5.60;99.90
18998;DHT22;9632;51.018;4.284;2023-02-28T10:24:55;5.60;99.90
18998;DHT22;9632;51.018;4.284;2023-02-28T10:27:30;5.70;99.90
18998;DHT22;9632;51.018;4.284;2023-02-28T10:29:58;5.70;99.90
18998;DHT22;9632;51.018;4.284;2023-02-28T10:32:31;5.80;99.90
18998;DHT22;9632;51.018;4.284;2023-02-28T10:37:42;5.70;99.90
18998;DHT22;9632;51.018;4.284;2023-02-28T10:45:28;5.60;99.90
18998;DHT22;9632;51.018;4.284;2023-02-28T10:50:43;5.60;99.90
18998;DHT22;9632;51.018;4.284;2023-02-28T10:53:24;5.60;99.90
18998;DHT22;9632;51.018;4.284;2023-02-28T11:01:38;5.60;99.90
18998;DHT22;9632;51.018;4.284;2023-02-28T11:07:03;5.80;99.90
18998;DHT22;9632;51.018;4.284;2023-02-28T11:12:02;5.70;99.50
18998;DHT22;9632;51.018;4.284;2023-02-28T11:14:32;5.70;98.30
18998;DHT22;9632;51.018;4.284;2023-02-28T11:20:06;5.70;99.80
18998;DHT22;9632;51.018;4.284;2023-02-28T11:22:39;5.80;97.90
18998;DHT22;9632;51.018;4.284;2023-02-28T11:25:29;5.70;96.30
18998;DHT22;9632;51.018;4.284;2023-02-28T11:28:39;5.70;97.30
18998;DHT22;9632;51.018;4.284;2023-02-28T11:36:24;5.80;98.70
18998;DHT22;9632;51.018;4.284;2023-02-28T11:39:10;5.90;96.10
18998;DHT22;9632;51.018;4.284;2023-02-28T11:45:04;6.10;97.80
18998;DHT22;9632;51.018;4.284;2023-02-28T11:48:01;6.20;98.30
18998;DHT22;9632;51.018;4.284;2023-02-28T11:50:57;6.20;98.00
18998;DHT22;9632;51.018;4.284;2023-02-28T12:12:06;6.50;96.40
18998;DHT22;9632;51.018;4.284;2023-02-28T12:14:54;6.30;95.30
18998;DHT22;9632;51.018;4.284;2023-02-28T12:25:53;6.30;95.20
18998;DHT22;9632;51.018;4.284;2023-02-28T12:28:25;6.30;94.60
18998;DHT22;9632;51.018;4.284;2023-02-28T12:33:45;6.20;95.60
18998;DHT22;9632;51.018;4.284;2023-02-28T12:36:15;6.20;94.90
18998;DHT22;9632;51.018;4.284;2023-02-28T12:38:48;6.20;95.80
18998;DHT22;9632;51.018;4.284;2023-02-28T12:41:22;6.30;95.80
18998;DHT22;9632;51.018;4.284;2023-02-28T12:43:57;6.30;95.00
18998;DHT22;9632;51.018;4.284;2023-02-28T12:46:45;6.40;95.90
18998;DHT22;9632;51.018;4.284;2023-02-28T12:49:37;6.40;94.80
18998;DHT22;9632;51.018;4.284;2023-02-28T12:52:04;6.40;95.30
18998;DHT22;9632;51.018;4.284;2023-02-28T12:54:50;6.40;95.50
18998;DHT22;9632;51.018;4.284;2023-02-28T12:57:56;6.40;95.00
18998;DHT22;9632;51.018;4.284;2023-02-28T13:00:28;6.50;95.70
18998;DHT22;9632;51.018;4.284;2023-02-28T13:11:29;6.60;94.60
18998;DHT22;9632;51.018;4.284;2023-02-28T13:14:04;6.60;94.30
18998;DHT22;9632;51.018;4.284;2023-02-28T13:16:58;6.50;94.20
18998;DHT22;9632;51.018;4.284;2023-02-28T13:19:27;6.40;93.40
18998;DHT22;9632;51.018;4.284;2023-02-28T13:21:57;6.40;93.20
18998;DHT22;9632;51.018;4.284;2023-02-28T13:24:48;6.30;93.50
18998;DHT22;9632;51.018;4.284;2023-02-28T13:29:41;6.20;94.30
18998;DHT22;9632;51.018;4.284;2023-02-28T13:35:33;6.40;95.90
18998;DHT22;9632;51.018;4.284;2023-02-28T13:42:37;6.30;94.10
18998;DHT22;9632;51.018;4.284;2023-02-28T13:58:12;6.30;93.80
18998;DHT22;9632;51.018;4.284;2023-02-28T14:05:44;6.30;93.60
18998;DHT22;9632;51.018;4.284;2023-02-28T14:08:18;6.40;93.80
18998;DHT22;9632;51.018;4.284;2023-02-28T14:10:49;6.40;93.60
18998;DHT22;9632;51.018;4.284;2023-02-28T14:13:44;6.40;93.70
18998;DHT22;9632;51.018;4.284;2023-02-28T14:16:37;6.30;93.70
18998;DHT22;9632;51.018;4.284;2023-02-28T14:22:03;6.30;94.60
18998;DHT22;9632;51.018;4.284;2023-02-28T14:27:47;6.30;93.80
18998;DHT22;9632;51.018;4.284;2023-02-28T14:30:56;6.20;94.10
18998;DHT22;9632;51.018;4.284;2023-02-28T14:33:47;6.20;94.40
18998;DHT22;9632;51.018;4.284;2023-02-28T14:36:40;6.20;94.20
18998;DHT22;9632;51.018;4.284;2023-02-28T14:39:16;6.30;95.80
18998;DHT22;9632;51.018;4.284;2023-02-28T14:41:45;6.30;95.30
18998;DHT22;9632;51.018;4.284;2023-02-28T14:44:25;6.40;95.70
18998;DHT22;9632;51.018;4.284;2023-02-28T14:46:59;6.40;94.70
18998;DHT22;9632;51.018;4.284;2023-02-28T14:49:34;6.50;94.90
18998;DHT22;9632;51.018;4.284;2023-02-28T14:54:35;6.60;96.00
18998;DHT22;9632;51.018;4.284;2023-02-28T14:57:02;6.60;95.50
18998;DHT22;9632;51.018;4.284;2023-02-28T14:59:35;6.70;95.70
18998;DHT22;9632;51.018;4.284;2023-02-28T15:02:21;6.60;95.30
18998;DHT22;9632;51.018;4.284;2023-02-28T15:05:47;6.60;95.70
18998;DHT22;9632;51.018;4.284;2023-02-28T15:07:46;6.70;96.50
18998;DHT22;9632;51.018;4.284;2023-02-28T15:10:24;6.60;95.60
18998;DHT22;9632;51.018;4.284;2023-02-28T15:12:56;6.70;95.70
18998;DHT22;9632;51.018;4.284;2023-02-28T15:15:24;6.60;95.40
18998;DHT22;9632;51.018;4.284;2023-02-28T15:17:55;6.50;95.60
18998;DHT22;9632;51.018;4.284;2023-02-28T15:20:23;6.60;96.10
18998;DHT22;9632;51.018;4.284;2023-02-28T15:22:50;6.50;96.20
18998;DHT22;9632;51.018;4.284;2023-02-28T15:25:20;6.40;95.70
18998;DHT22;9632;51.018;4.284;2023-02-28T15:27:50;6.40;95.70
18998;DHT22;9632;51.018;4.284;2023-02-28T15:35:32;6.50;96.80
18998;DHT22;9632;51.018;4.284;2023-02-28T15:38:40;6.50;96.70
18998;DHT22;9632;51.018;4.284;2023-02-28T15:40:56;6.50;96.90
18998;DHT22;9632;51.018;4.284;2023-02-28T15:43:25;6.50;96.80
18998;DHT22;9632;51.018;4.284;2023-02-28T15:46:07;6.60;96.10
18998;DHT22;9632;51.018;4.284;2023-02-28T15:48:44;6.40;95.30
18998;DHT22;9632;51.018;4.284;2023-02-28T15:51:42;6.40;96.10
18998;DHT22;9632;51.018;4.284;2023-02-28T15:54:12;6.40;95.70
18998;DHT22;9632;51.018;4.284;2023-02-28T15:56:45;6.30;95.90
18998;DHT22;9632;51.018;4.284;2023-02-28T15:59:24;6.30;96.30
18998;DHT22;9632;51.018;4.284;2023-02-28T16:04:35;6.30;96.00
18998;DHT22;9632;51.018;4.284;2023-02-28T16:07:12;6.40;96.60
18998;DHT22;9632;51.018;4.284;2023-02-28T16:09:39;6.50;97.00
18998;DHT22;9632;51.018;4.284;2023-02-28T16:12:04;6.50;96.50
18998;DHT22;9632;51.018;4.284;2023-02-28T16:14:31;6.50;95.80
18998;DHT22;9632;51.018;4.284;2023-02-28T16:17:03;6.40;96.20
18998;DHT22;9632;51.018;4.284;2023-02-28T16:19:28;6.40;96.00
18998;DHT22;9632;51.018;4.284;2023-02-28T16:21:54;6.30;96.00
18998;DHT22;9632;51.018;4.284;2023-02-28T16:24:20;6.30;96.20
18998;DHT22;9632;51.018;4.284;2023-02-28T16:26:47;6.30;96.60
18998;DHT22;9632;51.018;4.284;2023-02-28T16:29:17;6.30;96.80
18998;DHT22;9632;51.018;4.284;2023-02-28T16:31:45;6.30;96.40
18998;DHT22;9632;51.018;4.284;2023-02-28T16:34:10;6.30;97.00
18998;DHT22;9632;51.018;4.284;2023-02-28T16:36:36;6.30;96.80
18998;DHT22;9632;51.018;4.284;2023-02-28T16:39:01;6.40;97.00
18998;DHT22;9632;51.018;4.284;2023-02-28T16:41:28;6.30;96.40
18998;DHT22;9632;51.018;4.284;2023-02-28T16:43:56;6.20;96.70
18998;DHT22;9632;51.018;4.284;2023-02-28T16:46:33;6.40;97.00
18998;DHT22;9632;51.018;4.284;2023-02-28T16:48:59;6.40;97.10
18998;DHT22;9632;51.018;4.284;2023-02-28T16:51:24;6.40;97.00
18998;DHT22;9632;51.018;4.284;2023-02-28T16:53:50;6.40;96.90
18998;DHT22;9632;51.018;4.284;2023-02-28T16:56:23;6.40;97.10
18998;DHT22;9632;51.018;4.284;2023-02-28T16:58:51;6.50;97.50
18998;DHT22;9632;51.018;4.284;2023-02-28T17:01:17;6.50;97.40
18998;DHT22;9632;51.018;4.284;2023-02-28T17:03:50;6.40;97.50
18998;DHT22;9632;51.018;4.284;2023-02-28T17:06:22;6.40;97.40
18998;DHT22;9632;51.018;4.284;2023-02-28T17:08:51;6.50;97.40
18998;DHT22;9632;51.018;4.284;2023-02-28T17:11:18;6.50;97.40
18998;DHT22;9632;51.018;4.284;2023-02-28T17:13:44;6.50;97.40
18998;DHT22;9632;51.018;4.284;2023-02-28T17:16:30;6.50;97.20
18998;DHT22;9632;51.018;4.284;2023-02-28T17:19:04;6.40;97.60
18998;DHT22;9632;51.018;4.284;2023-02-28T17:21:31;6.50;97.90
18998;DHT22;9632;51.018;4.284;2023-02-28T17:23:57;6.40;97.60
18998;DHT22;9632;51.018;4.284;2023-02-28T17:26:23;6.30;97.90
18998;DHT22;9632;51.018;4.284;2023-02-28T17:28:54;6.30;97.80
18998;DHT22;9632;51.018;4.284;2023-02-28T17:31:24;6.30;98.00
18998;DHT22;9632;51.018;4.284;2023-02-28T17:33:50;6.30;98.30
18998;DHT22;9632;51.018;4.284;2023-02-28T17:36:20;6.30;98.50
18998;DHT22;9632;51.018;4.284;2023-02-28T17:38:51;6.30;98.70
18998;DHT22;9632;51.018;4.284;2023-02-28T17:41:17;6.30;98.70
18998;DHT22;9632;51.018;4.284;2023-02-28T17:43:43;6.30;98.60
18998;DHT22;9632;51.018;4.284;2023-02-28T17:46:18;6.20;98.80
18998;DHT22;9632;51.018;4.284;2023-02-28T17:48:46;6.20;98.80
18998;DHT22;9632;51.018;4.284;2023-02-28T17:51:13;6.20;99.00
18998;DHT22;9632;51.018;4.284;2023-02-28T17:53:39;6.10;99.20
18998;DHT22;9632;51.018;4.284;2023-02-28T17:56:09;6.10;99.40
18998;DHT22;9632;51.018;4.284;2023-02-28T17:58:36;6.00;99.50
18998;DHT22;9632;51.018;4.284;2023-02-28T18:01:01;6.00;99.70
18998;DHT22;9632;51.018;4.284;2023-02-28T18:03:27;5.90;99.70
18998;DHT22;9632;51.018;4.284;2023-02-28T18:05:53;5.90;99.90
18998;DHT22;9632;51.018;4.284;2023-02-28T18:08:19;5.90;99.90
18998;DHT22;9632;51.018;4.284;2023-02-28T18:10:45;5.90;99.90
18998;DHT22;9632;51.018;4.284;2023-02-28T18:13:11;5.90;99.90
18998;DHT22;9632;51.018;4.284;2023-02-28T18:15:38;5.90;99.90
18998;DHT22;9632;51.018;4.284;2023-02-28T18:18:04;5.80;99.90
18998;DHT22;9632;51.018;4.284;2023-02-28T18:20:32;5.80;99.90
18998;DHT22;9632;51.018;4.284;2023-02-28T18:22:58;5.80;99.90
18998;DHT22;9632;51.018;4.284;2023-02-28T18:25:24;5.70;99.90
18998;DHT22;9632;51.018;4.284;2023-02-28T18:27:50;5.70;99.90
18998;DHT22;9632;51.018;4.284;2023-02-28T18:30:23;5.70;99.90
18998;DHT22;9632;51.018;4.284;2023-02-28T18:32:50;5.60;99.90
18998;DHT22;9632;51.018;4.284;2023-02-28T18:35:15;5.60;99.90
18998;DHT22;9632;51.018;4.284;2023-02-28T18:38:07;5.60;99.90
18998;DHT22;9632;51.018;4.284;2023-02-28T18:40:34;5.50;99.90
18998;DHT22;9632;51.018;4.284;2023-02-28T18:43:00;5.50;99.90
18998;DHT22;9632;51.018;4.284;2023-02-28T18:45:26;5.50;99.90
18998;DHT22;9632;51.018;4.284;2023-02-28T18:47:52;5.50;99.90
18998;DHT22;9632;51.018;4.284;2023-02-28T18:50:18;5.50;99.90
18998;DHT22;9632;51.018;4.284;2023-02-28T18:52:43;5.50;99.90
18998;DHT22;9632;51.018;4.284;2023-02-28T18:55:09;5.40;99.90
18998;DHT22;9632;51.018;4.284;2023-02-28T18:57:36;5.40;99.90
18998;DHT22;9632;51.018;4.284;2023-02-28T19:00:02;5.30;99.90
18998;DHT22;9632;51.018;4.284;2023-02-28T19:02:27;5.30;99.90
18998;DHT22;9632;51.018;4.284;2023-02-28T19:04:53;5.20;99.90
18998;DHT22;9632;51.018;4.284;2023-02-28T19:07:19;5.20;99.90
18998;DHT22;9632;51.018;4.284;2023-02-28T19:09:44;5.20;99.90